Huvudsida
METAR-TAF:

METAR-TAF

Flygplatser :

Genua, Italien

latitud: 44-25N, longitud: 008-51E, höjd: 2 m

Aktuellt väderrapport

Denna rapport gjordes för 19 minuter sedan, klockan 04:20 UTC
Vind 5 kt från nord/nordost
Temperatur 21°C
Fuktighet 78%
Tryck 1015 hPa
Sikt 10 km eller mer
Inga moln under 1 500 m eller inga cumulonimbus

METAR: LIMJ 190420Z 02005KT CAVOK 21/17 Q1015

Tid: 06:39 (04:39 UTC)

Väderprognos

Denna rapport gjordes för 5 timmar och 39 minuter sedan, klockan 23:00 UTC
Prognos gäller från 19 kl. 00 UTC till 19 kl. 24 UTC
Vind 5 kt varierande vindriktning
Sikt 10 km eller mer
Inga moln under 1 500 m eller inga cumulonimbus

TAF: LIMJ 182300Z 1900/1924 VRB05KT CAVOK

Aktuella väderrapporter och prognoser från 4000 flygplatser (METAR- och TAF-rapporter).

De tillgängliga stationerna syns som gula och röda prickar på kartan.

För musen över prickarna för att se namnen på stationerna.

Klicka sedan för att få väderrapporter och prognoser.

För att ändra kartan: Klicka på de gröna knapparna med ett svart kors på för att zooma in; den gröna knappen med ett streck på för att zooma ut; eller på de gröna pilarna för angränsande kartor.


METAR-TAF: